sensor_id;sensor_type;location;lat;lon;timestamp;P1;durP1;ratioP1;P2;durP2;ratioP2
65853;SDS011;52627;48.838;2.402;2023-09-12T00:00:52;6.00;;;3.10;;
65853;SDS011;52627;48.838;2.402;2023-09-12T00:03:21;6.90;;;3.30;;
65853;SDS011;52627;48.838;2.402;2023-09-12T00:05:51;5.30;;;3.20;;
65853;SDS011;52627;48.838;2.402;2023-09-12T00:08:19;5.10;;;3.30;;
65853;SDS011;52627;48.838;2.402;2023-09-12T00:10:58;5.60;;;3.10;;
65853;SDS011;52627;48.838;2.402;2023-09-12T00:13:27;5.40;;;3.00;;
65853;SDS011;52627;48.838;2.402;2023-09-12T00:15:54;4.50;;;2.90;;
65853;SDS011;52627;48.838;2.402;2023-09-12T00:18:22;4.60;;;3.00;;
65853;SDS011;52627;48.838;2.402;2023-09-12T00:20:52;4.80;;;3.20;;
65853;SDS011;52627;48.838;2.402;2023-09-12T00:23:21;5.70;;;3.20;;
65853;SDS011;52627;48.838;2.402;2023-09-12T00:25:50;8.00;;;3.70;;
65853;SDS011;52627;48.838;2.402;2023-09-12T00:28:20;4.50;;;3.00;;
65853;SDS011;52627;48.838;2.402;2023-09-12T00:30:48;6.50;;;3.60;;
65853;SDS011;52627;48.838;2.402;2023-09-12T00:33:15;5.70;;;3.60;;
65853;SDS011;52627;48.838;2.402;2023-09-12T00:35:44;6.70;;;3.80;;
65853;SDS011;52627;48.838;2.402;2023-09-12T00:38:12;6.10;;;3.40;;
65853;SDS011;52627;48.838;2.402;2023-09-12T00:40:39;5.40;;;3.50;;
65853;SDS011;52627;48.838;2.402;2023-09-12T00:43:07;5.20;;;3.40;;
65853;SDS011;52627;48.838;2.402;2023-09-12T00:45:35;5.50;;;3.50;;
65853;SDS011;52627;48.838;2.402;2023-09-12T00:48:04;5.80;;;3.50;;
65853;SDS011;52627;48.838;2.402;2023-09-12T00:50:32;5.20;;;3.20;;
65853;SDS011;52627;48.838;2.402;2023-09-12T00:53:02;5.50;;;3.80;;
65853;SDS011;52627;48.838;2.402;2023-09-12T00:55:32;6.50;;;3.60;;
65853;SDS011;52627;48.838;2.402;2023-09-12T00:58:02;5.40;;;3.90;;
65853;SDS011;52627;48.838;2.402;2023-09-12T01:00:30;6.30;;;3.60;;
65853;SDS011;52627;48.838;2.402;2023-09-12T01:02:58;5.40;;;3.30;;
65853;SDS011;52627;48.838;2.402;2023-09-12T01:05:26;6.50;;;3.90;;
65853;SDS011;52627;48.838;2.402;2023-09-12T01:07:54;6.60;;;3.80;;
65853;SDS011;52627;48.838;2.402;2023-09-12T01:10:22;7.00;;;3.70;;
65853;SDS011;52627;48.838;2.402;2023-09-12T01:12:50;7.20;;;4.00;;
65853;SDS011;52627;48.838;2.402;2023-09-12T01:15:18;6.40;;;4.10;;
65853;SDS011;52627;48.838;2.402;2023-09-12T01:17:46;7.90;;;4.00;;
65853;SDS011;52627;48.838;2.402;2023-09-12T01:20:16;7.20;;;4.10;;
65853;SDS011;52627;48.838;2.402;2023-09-12T01:28:29;7.30;;;4.60;;
65853;SDS011;52627;48.838;2.402;2023-09-12T01:31:02;6.50;;;4.50;;
65853;SDS011;52627;48.838;2.402;2023-09-12T01:33:30;6.80;;;4.50;;
65853;SDS011;52627;48.838;2.402;2023-09-12T01:35:59;7.10;;;4.60;;
65853;SDS011;52627;48.838;2.402;2023-09-12T01:38:27;8.80;;;5.20;;
65853;SDS011;52627;48.838;2.402;2023-09-12T01:40:55;8.70;;;5.10;;
65853;SDS011;52627;48.838;2.402;2023-09-12T01:43:24;9.40;;;4.90;;
65853;SDS011;52627;48.838;2.402;2023-09-12T01:45:55;9.10;;;4.90;;
65853;SDS011;52627;48.838;2.402;2023-09-12T01:50:58;9.50;;;4.80;;
65853;SDS011;52627;48.838;2.402;2023-09-12T01:53:28;10.00;;;4.90;;
65853;SDS011;52627;48.838;2.402;2023-09-12T01:55:57;8.20;;;5.20;;
65853;SDS011;52627;48.838;2.402;2023-09-12T01:58:25;7.70;;;5.50;;
65853;SDS011;52627;48.838;2.402;2023-09-12T02:00:54;8.50;;;4.60;;
65853;SDS011;52627;48.838;2.402;2023-09-12T02:03:22;7.10;;;5.10;;
65853;SDS011;52627;48.838;2.402;2023-09-12T02:05:50;11.30;;;5.30;;
65853;SDS011;52627;48.838;2.402;2023-09-12T02:08:17;7.80;;;5.50;;
65853;SDS011;52627;48.838;2.402;2023-09-12T02:10:45;8.60;;;5.10;;
65853;SDS011;52627;48.838;2.402;2023-09-12T02:13:13;8.90;;;5.50;;
65853;SDS011;52627;48.838;2.402;2023-09-12T02:15:40;8.50;;;5.80;;
65853;SDS011;52627;48.838;2.402;2023-09-12T02:18:08;9.70;;;5.60;;
65853;SDS011;52627;48.838;2.402;2023-09-12T02:20:40;8.40;;;5.20;;
65853;SDS011;52627;48.838;2.402;2023-09-12T02:23:08;10.60;;;5.90;;
65853;SDS011;52627;48.838;2.402;2023-09-12T02:25:35;9.30;;;5.10;;
65853;SDS011;52627;48.838;2.402;2023-09-12T02:28:04;10.80;;;6.20;;
65853;SDS011;52627;48.838;2.402;2023-09-12T02:30:32;9.40;;;6.30;;
65853;SDS011;52627;48.838;2.402;2023-09-12T02:33:00;11.20;;;6.80;;
65853;SDS011;52627;48.838;2.402;2023-09-12T02:35:28;10.80;;;6.30;;
65853;SDS011;52627;48.838;2.402;2023-09-12T02:37:56;10.40;;;6.30;;
65853;SDS011;52627;48.838;2.402;2023-09-12T02:40:24;9.90;;;6.00;;
65853;SDS011;52627;48.838;2.402;2023-09-12T02:42:52;9.40;;;6.50;;
65853;SDS011;52627;48.838;2.402;2023-09-12T02:45:19;9.90;;;7.10;;
65853;SDS011;52627;48.838;2.402;2023-09-12T02:47:47;11.60;;;6.60;;
65853;SDS011;52627;48.838;2.402;2023-09-12T02:50:15;9.80;;;6.40;;
65853;SDS011;52627;48.838;2.402;2023-09-12T02:52:42;10.80;;;6.50;;
65853;SDS011;52627;48.838;2.402;2023-09-12T02:55:10;9.30;;;6.20;;
65853;SDS011;52627;48.838;2.402;2023-09-12T02:57:38;10.00;;;6.70;;
65853;SDS011;52627;48.838;2.402;2023-09-12T03:00:06;11.20;;;7.30;;
65853;SDS011;52627;48.838;2.402;2023-09-12T03:02:36;12.30;;;7.20;;
65853;SDS011;52627;48.838;2.402;2023-09-12T03:05:04;9.60;;;6.70;;
65853;SDS011;52627;48.838;2.402;2023-09-12T03:07:32;9.70;;;7.00;;
65853;SDS011;52627;48.838;2.402;2023-09-12T03:09:59;11.80;;;7.50;;
65853;SDS011;52627;48.838;2.402;2023-09-12T03:12:27;10.90;;;6.80;;
65853;SDS011;52627;48.838;2.402;2023-09-12T03:14:56;12.00;;;7.50;;
65853;SDS011;52627;48.838;2.402;2023-09-12T03:17:23;9.40;;;6.80;;
65853;SDS011;52627;48.838;2.402;2023-09-12T03:19:51;10.80;;;7.30;;
65853;SDS011;52627;48.838;2.402;2023-09-12T03:22:19;11.50;;;7.40;;
65853;SDS011;52627;48.838;2.402;2023-09-12T03:24:46;13.00;;;8.10;;
65853;SDS011;52627;48.838;2.402;2023-09-12T03:27:14;10.50;;;6.90;;
65853;SDS011;52627;48.838;2.402;2023-09-12T03:29:41;9.80;;;7.00;;
65853;SDS011;52627;48.838;2.402;2023-09-12T03:32:09;10.10;;;6.60;;
65853;SDS011;52627;48.838;2.402;2023-09-12T03:34:37;11.40;;;7.80;;
65853;SDS011;52627;48.838;2.402;2023-09-12T03:37:04;10.50;;;7.00;;
65853;SDS011;52627;48.838;2.402;2023-09-12T03:39:33;12.30;;;7.60;;
65853;SDS011;52627;48.838;2.402;2023-09-12T03:42:00;10.70;;;7.30;;
65853;SDS011;52627;48.838;2.402;2023-09-12T03:44:28;12.40;;;7.60;;
65853;SDS011;52627;48.838;2.402;2023-09-12T03:46:55;10.90;;;7.40;;
65853;SDS011;52627;48.838;2.402;2023-09-12T03:49:24;10.60;;;7.20;;
65853;SDS011;52627;48.838;2.402;2023-09-12T03:51:51;10.50;;;7.30;;
65853;SDS011;52627;48.838;2.402;2023-09-12T03:54:18;10.80;;;6.30;;
65853;SDS011;52627;48.838;2.402;2023-09-12T03:56:46;11.60;;;7.10;;
65853;SDS011;52627;48.838;2.402;2023-09-12T03:59:14;9.20;;;6.30;;
65853;SDS011;52627;48.838;2.402;2023-09-12T04:01:42;9.70;;;7.10;;
65853;SDS011;52627;48.838;2.402;2023-09-12T04:04:10;11.30;;;6.90;;
65853;SDS011;52627;48.838;2.402;2023-09-12T04:06:37;14.40;;;7.10;;
65853;SDS011;52627;48.838;2.402;2023-09-12T04:09:05;11.60;;;7.10;;
65853;SDS011;52627;48.838;2.402;2023-09-12T04:11:34;10.30;;;7.10;;
65853;SDS011;52627;48.838;2.402;2023-09-12T04:14:16;11.80;;;7.20;;
65853;SDS011;52627;48.838;2.402;2023-09-12T04:16:43;11.00;;;6.80;;
65853;SDS011;52627;48.838;2.402;2023-09-12T04:19:13;11.70;;;6.80;;
65853;SDS011;52627;48.838;2.402;2023-09-12T04:21:41;11.90;;;7.90;;
65853;SDS011;52627;48.838;2.402;2023-09-12T04:24:09;10.70;;;7.50;;
65853;SDS011;52627;48.838;2.402;2023-09-12T04:26:36;14.70;;;8.00;;
65853;SDS011;52627;48.838;2.402;2023-09-12T04:29:04;11.70;;;7.80;;
65853;SDS011;52627;48.838;2.402;2023-09-12T04:31:31;12.50;;;8.10;;
65853;SDS011;52627;48.838;2.402;2023-09-12T04:33:59;12.80;;;8.10;;
65853;SDS011;52627;48.838;2.402;2023-09-12T04:36:26;11.10;;;8.10;;
65853;SDS011;52627;48.838;2.402;2023-09-12T04:38:54;12.00;;;8.10;;
65853;SDS011;52627;48.838;2.402;2023-09-12T04:41:22;15.10;;;7.80;;
65853;SDS011;52627;48.838;2.402;2023-09-12T04:43:49;11.60;;;8.40;;
65853;SDS011;52627;48.838;2.402;2023-09-12T04:46:16;11.60;;;8.20;;
65853;SDS011;52627;48.838;2.402;2023-09-12T04:48:44;11.70;;;8.20;;
65853;SDS011;52627;48.838;2.402;2023-09-12T04:51:12;13.00;;;8.90;;
65853;SDS011;52627;48.838;2.402;2023-09-12T04:53:40;14.30;;;9.20;;
65853;SDS011;52627;48.838;2.402;2023-09-12T04:56:08;11.70;;;8.20;;
65853;SDS011;52627;48.838;2.402;2023-09-12T04:58:37;13.70;;;8.50;;
65853;SDS011;52627;48.838;2.402;2023-09-12T05:01:05;11.50;;;8.50;;
65853;SDS011;52627;48.838;2.402;2023-09-12T05:03:32;12.90;;;8.30;;
65853;SDS011;52627;48.838;2.402;2023-09-12T05:06:01;10.20;;;7.80;;
65853;SDS011;52627;48.838;2.402;2023-09-12T05:08:29;11.50;;;7.70;;
65853;SDS011;52627;48.838;2.402;2023-09-12T05:10:57;12.10;;;8.10;;
65853;SDS011;52627;48.838;2.402;2023-09-12T05:13:25;13.30;;;8.70;;
65853;SDS011;52627;48.838;2.402;2023-09-12T05:15:52;17.50;;;9.30;;
65853;SDS011;52627;48.838;2.402;2023-09-12T05:18:20;14.60;;;9.10;;
65853;SDS011;52627;48.838;2.402;2023-09-12T05:20:48;17.10;;;9.80;;
65853;SDS011;52627;48.838;2.402;2023-09-12T05:23:16;16.70;;;9.80;;
65853;SDS011;52627;48.838;2.402;2023-09-12T05:25:44;16.00;;;9.90;;
65853;SDS011;52627;48.838;2.402;2023-09-12T05:28:12;17.40;;;10.90;;
65853;SDS011;52627;48.838;2.402;2023-09-12T05:30:43;13.40;;;8.70;;
65853;SDS011;52627;48.838;2.402;2023-09-12T05:33:11;13.30;;;8.50;;
65853;SDS011;52627;48.838;2.402;2023-09-12T05:35:38;14.70;;;9.70;;
65853;SDS011;52627;48.838;2.402;2023-09-12T05:38:06;11.50;;;9.30;;
65853;SDS011;52627;48.838;2.402;2023-09-12T05:40:34;15.80;;;10.20;;
65853;SDS011;52627;48.838;2.402;2023-09-12T05:43:01;14.50;;;9.90;;
65853;SDS011;52627;48.838;2.402;2023-09-12T05:45:29;12.90;;;9.00;;
65853;SDS011;52627;48.838;2.402;2023-09-12T05:48:00;12.90;;;9.00;;
65853;SDS011;52627;48.838;2.402;2023-09-12T05:50:28;12.60;;;9.90;;
65853;SDS011;52627;48.838;2.402;2023-09-12T05:52:56;13.00;;;9.50;;
65853;SDS011;52627;48.838;2.402;2023-09-12T05:55:23;14.10;;;9.70;;
65853;SDS011;52627;48.838;2.402;2023-09-12T05:57:52;12.40;;;9.10;;
65853;SDS011;52627;48.838;2.402;2023-09-12T06:00:20;14.60;;;9.80;;
65853;SDS011;52627;48.838;2.402;2023-09-12T06:02:48;14.80;;;10.10;;
65853;SDS011;52627;48.838;2.402;2023-09-12T06:05:16;13.00;;;9.90;;
65853;SDS011;52627;48.838;2.402;2023-09-12T06:07:44;14.40;;;10.00;;
65853;SDS011;52627;48.838;2.402;2023-09-12T06:10:11;12.30;;;9.10;;
65853;SDS011;52627;48.838;2.402;2023-09-12T06:12:39;15.30;;;9.40;;
65853;SDS011;52627;48.838;2.402;2023-09-12T06:15:07;15.70;;;9.30;;
65853;SDS011;52627;48.838;2.402;2023-09-12T06:17:34;16.00;;;9.80;;
65853;SDS011;52627;48.838;2.402;2023-09-12T06:20:02;15.60;;;9.80;;
65853;SDS011;52627;48.838;2.402;2023-09-12T06:22:33;12.30;;;8.20;;
65853;SDS011;52627;48.838;2.402;2023-09-12T06:25:01;15.40;;;10.70;;
65853;SDS011;52627;48.838;2.402;2023-09-12T06:27:29;17.30;;;10.00;;
65853;SDS011;52627;48.838;2.402;2023-09-12T06:29:58;15.60;;;9.70;;
65853;SDS011;52627;48.838;2.402;2023-09-12T06:32:25;14.70;;;9.50;;
65853;SDS011;52627;48.838;2.402;2023-09-12T06:34:53;14.60;;;9.50;;
65853;SDS011;52627;48.838;2.402;2023-09-12T06:37:21;15.50;;;9.30;;
65853;SDS011;52627;48.838;2.402;2023-09-12T06:39:51;14.00;;;8.70;;
65853;SDS011;52627;48.838;2.402;2023-09-12T06:42:19;16.90;;;9.00;;
65853;SDS011;52627;48.838;2.402;2023-09-12T06:44:46;13.60;;;9.20;;
65853;SDS011;52627;48.838;2.402;2023-09-12T06:47:14;12.00;;;8.10;;
65853;SDS011;52627;48.838;2.402;2023-09-12T06:49:41;13.70;;;10.30;;
65853;SDS011;52627;48.838;2.402;2023-09-12T06:52:10;15.00;;;10.60;;
65853;SDS011;52627;48.838;2.402;2023-09-12T06:54:37;14.20;;;9.00;;
65853;SDS011;52627;48.838;2.402;2023-09-12T06:57:05;14.70;;;9.70;;
65853;SDS011;52627;48.838;2.402;2023-09-12T06:59:32;15.90;;;11.00;;
65853;SDS011;52627;48.838;2.402;2023-09-12T07:02:00;13.40;;;10.50;;
65853;SDS011;52627;48.838;2.402;2023-09-12T07:04:29;13.00;;;8.60;;
65853;SDS011;52627;48.838;2.402;2023-09-12T07:06:57;13.50;;;9.60;;
65853;SDS011;52627;48.838;2.402;2023-09-12T07:09:24;16.30;;;10.30;;
65853;SDS011;52627;48.838;2.402;2023-09-12T07:11:52;14.50;;;10.20;;
65853;SDS011;52627;48.838;2.402;2023-09-12T07:14:20;13.80;;;10.60;;
65853;SDS011;52627;48.838;2.402;2023-09-12T07:16:48;14.10;;;8.90;;
65853;SDS011;52627;48.838;2.402;2023-09-12T07:19:16;15.70;;;10.00;;
65853;SDS011;52627;48.838;2.402;2023-09-12T07:21:43;19.80;;;12.90;;
65853;SDS011;52627;48.838;2.402;2023-09-12T07:24:11;19.90;;;13.40;;
65853;SDS011;52627;48.838;2.402;2023-09-12T07:26:38;19.40;;;13.50;;
65853;SDS011;52627;48.838;2.402;2023-09-12T07:29:06;16.20;;;11.00;;
65853;SDS011;52627;48.838;2.402;2023-09-12T07:31:34;18.60;;;13.70;;
65853;SDS011;52627;48.838;2.402;2023-09-12T07:34:02;19.90;;;14.70;;
65853;SDS011;52627;48.838;2.402;2023-09-12T07:36:33;19.00;;;14.10;;
65853;SDS011;52627;48.838;2.402;2023-09-12T07:39:01;17.80;;;12.90;;
65853;SDS011;52627;48.838;2.402;2023-09-12T07:41:30;19.00;;;13.30;;
65853;SDS011;52627;48.838;2.402;2023-09-12T07:43:57;17.50;;;12.30;;
65853;SDS011;52627;48.838;2.402;2023-09-12T07:46:26;14.50;;;11.30;;
65853;SDS011;52627;48.838;2.402;2023-09-12T07:48:54;17.50;;;11.60;;
65853;SDS011;52627;48.838;2.402;2023-09-12T07:51:23;15.20;;;11.70;;
65853;SDS011;52627;48.838;2.402;2023-09-12T07:53:51;13.70;;;10.80;;
65853;SDS011;52627;48.838;2.402;2023-09-12T07:56:19;18.10;;;10.70;;
65853;SDS011;52627;48.838;2.402;2023-09-12T07:58:46;16.60;;;9.70;;
65853;SDS011;52627;48.838;2.402;2023-09-12T08:01:14;13.30;;;9.20;;
65853;SDS011;52627;48.838;2.402;2023-09-12T08:03:42;11.30;;;8.70;;
65853;SDS011;52627;48.838;2.402;2023-09-12T08:06:11;12.90;;;9.00;;
65853;SDS011;52627;48.838;2.402;2023-09-12T08:08:38;13.90;;;8.60;;
65853;SDS011;52627;48.838;2.402;2023-09-12T08:11:06;12.50;;;8.70;;
65853;SDS011;52627;48.838;2.402;2023-09-12T08:13:33;17.40;;;8.90;;
65853;SDS011;52627;48.838;2.402;2023-09-12T08:16:01;12.60;;;9.20;;
65853;SDS011;52627;48.838;2.402;2023-09-12T08:18:29;14.20;;;8.00;;
65853;SDS011;52627;48.838;2.402;2023-09-12T08:20:58;14.70;;;8.40;;
65853;SDS011;52627;48.838;2.402;2023-09-12T08:23:25;13.90;;;9.40;;
65853;SDS011;52627;48.838;2.402;2023-09-12T08:25:53;11.80;;;7.70;;
65853;SDS011;52627;48.838;2.402;2023-09-12T08:28:21;13.10;;;8.90;;
65853;SDS011;52627;48.838;2.402;2023-09-12T08:30:48;11.60;;;7.70;;
65853;SDS011;52627;48.838;2.402;2023-09-12T08:33:16;13.10;;;7.90;;
65853;SDS011;52627;48.838;2.402;2023-09-12T08:35:44;11.50;;;7.30;;
65853;SDS011;52627;48.838;2.402;2023-09-12T08:38:11;12.10;;;7.40;;
65853;SDS011;52627;48.838;2.402;2023-09-12T08:40:39;12.60;;;7.20;;
65853;SDS011;52627;48.838;2.402;2023-09-12T08:43:08;10.90;;;7.10;;
65853;SDS011;52627;48.838;2.402;2023-09-12T08:45:36;11.90;;;8.40;;
65853;SDS011;52627;48.838;2.402;2023-09-12T08:48:06;11.80;;;7.90;;
65853;SDS011;52627;48.838;2.402;2023-09-12T08:50:35;13.70;;;7.70;;
65853;SDS011;52627;48.838;2.402;2023-09-12T08:53:02;11.00;;;8.30;;
65853;SDS011;52627;48.838;2.402;2023-09-12T08:55:35;13.20;;;6.90;;
65853;SDS011;52627;48.838;2.402;2023-09-12T08:58:04;10.70;;;6.90;;
65853;SDS011;52627;48.838;2.402;2023-09-12T09:00:34;12.30;;;7.20;;
65853;SDS011;52627;48.838;2.402;2023-09-12T09:03:02;10.20;;;7.50;;
65853;SDS011;52627;48.838;2.402;2023-09-12T09:05:32;10.70;;;6.20;;
65853;SDS011;52627;48.838;2.402;2023-09-12T09:08:01;9.80;;;7.00;;
65853;SDS011;52627;48.838;2.402;2023-09-12T09:10:30;10.50;;;6.40;;
65853;SDS011;52627;48.838;2.402;2023-09-12T09:13:17;12.10;;;7.20;;
65853;SDS011;52627;48.838;2.402;2023-09-12T09:15:46;11.50;;;7.70;;
65853;SDS011;52627;48.838;2.402;2023-09-12T09:18:14;12.40;;;7.20;;
65853;SDS011;52627;48.838;2.402;2023-09-12T09:20:42;14.90;;;7.30;;
65853;SDS011;52627;48.838;2.402;2023-09-12T09:23:12;13.90;;;7.60;;
65853;SDS011;52627;48.838;2.402;2023-09-12T09:25:42;11.20;;;7.40;;
65853;SDS011;52627;48.838;2.402;2023-09-12T09:28:19;12.70;;;7.90;;
65853;SDS011;52627;48.838;2.402;2023-09-12T09:30:49;11.90;;;7.70;;
65853;SDS011;52627;48.838;2.402;2023-09-12T09:33:23;13.80;;;7.80;;
65853;SDS011;52627;48.838;2.402;2023-09-12T09:36:02;10.90;;;7.90;;
65853;SDS011;52627;48.838;2.402;2023-09-12T09:38:31;11.60;;;7.10;;
65853;SDS011;52627;48.838;2.402;2023-09-12T09:40:59;12.60;;;7.20;;
65853;SDS011;52627;48.838;2.402;2023-09-12T09:43:27;11.40;;;7.70;;
65853;SDS011;52627;48.838;2.402;2023-09-12T09:45:55;25.50;;;10.10;;
65853;SDS011;52627;48.838;2.402;2023-09-12T09:48:24;32.40;;;12.70;;
65853;SDS011;52627;48.838;2.402;2023-09-12T09:51:02;28.20;;;12.30;;
65853;SDS011;52627;48.838;2.402;2023-09-12T09:53:31;19.30;;;11.20;;
65853;SDS011;52627;48.838;2.402;2023-09-12T09:58:46;15.40;;;10.10;;
65853;SDS011;52627;48.838;2.402;2023-09-12T10:01:28;17.60;;;10.80;;
65853;SDS011;52627;48.838;2.402;2023-09-12T10:04:00;16.90;;;11.50;;
65853;SDS011;52627;48.838;2.402;2023-09-12T10:06:29;18.70;;;11.80;;
65853;SDS011;52627;48.838;2.402;2023-09-12T10:09:00;18.10;;;12.10;;
65853;SDS011;52627;48.838;2.402;2023-09-12T10:11:31;18.00;;;11.90;;
65853;SDS011;52627;48.838;2.402;2023-09-12T10:14:03;24.90;;;12.80;;
65853;SDS011;52627;48.838;2.402;2023-09-12T10:16:36;20.80;;;12.30;;
65853;SDS011;52627;48.838;2.402;2023-09-12T10:19:29;20.80;;;12.90;;
65853;SDS011;52627;48.838;2.402;2023-09-12T10:22:09;21.20;;;13.30;;
65853;SDS011;52627;48.838;2.402;2023-09-12T10:24:42;24.20;;;14.20;;
65853;SDS011;52627;48.838;2.402;2023-09-12T10:27:11;23.10;;;15.00;;
65853;SDS011;52627;48.838;2.402;2023-09-12T10:29:39;22.80;;;15.40;;
65853;SDS011;52627;48.838;2.402;2023-09-12T10:32:08;24.70;;;14.50;;
65853;SDS011;52627;48.838;2.402;2023-09-12T10:34:37;25.80;;;15.70;;
65853;SDS011;52627;48.838;2.402;2023-09-12T10:37:06;25.50;;;16.10;;
65853;SDS011;52627;48.838;2.402;2023-09-12T10:39:34;23.50;;;16.00;;
65853;SDS011;52627;48.838;2.402;2023-09-12T10:42:04;25.30;;;16.10;;
65853;SDS011;52627;48.838;2.402;2023-09-12T10:44:33;23.10;;;15.90;;
65853;SDS011;52627;48.838;2.402;2023-09-12T10:47:01;22.80;;;15.20;;
65853;SDS011;52627;48.838;2.402;2023-09-12T10:49:32;28.20;;;17.50;;
65853;SDS011;52627;48.838;2.402;2023-09-12T10:52:00;21.80;;;16.30;;
65853;SDS011;52627;48.838;2.402;2023-09-12T10:54:38;25.40;;;16.20;;
65853;SDS011;52627;48.838;2.402;2023-09-12T10:57:09;22.90;;;16.10;;
65853;SDS011;52627;48.838;2.402;2023-09-12T11:02:33;22.60;;;15.50;;
65853;SDS011;52627;48.838;2.402;2023-09-12T11:05:04;25.50;;;17.30;;
65853;SDS011;52627;48.838;2.402;2023-09-12T11:12:43;26.70;;;17.30;;
65853;SDS011;52627;48.838;2.402;2023-09-12T11:15:11;26.00;;;15.50;;
65853;SDS011;52627;48.838;2.402;2023-09-12T11:18:09;22.80;;;15.50;;
65853;SDS011;52627;48.838;2.402;2023-09-12T11:20:59;20.20;;;14.20;;
65853;SDS011;52627;48.838;2.402;2023-09-12T11:23:31;22.40;;;14.70;;
65853;SDS011;52627;48.838;2.402;2023-09-12T11:28:34;19.70;;;13.30;;
65853;SDS011;52627;48.838;2.402;2023-09-12T11:31:03;20.80;;;13.70;;
65853;SDS011;52627;48.838;2.402;2023-09-12T11:33:32;17.50;;;12.30;;
65853;SDS011;52627;48.838;2.402;2023-09-12T11:36:02;16.50;;;12.10;;
65853;SDS011;52627;48.838;2.402;2023-09-12T11:38:38;15.30;;;10.50;;
65853;SDS011;52627;48.838;2.402;2023-09-12T11:41:05;14.30;;;10.30;;
65853;SDS011;52627;48.838;2.402;2023-09-12T11:43:37;13.70;;;8.00;;
65853;SDS011;52627;48.838;2.402;2023-09-12T11:46:07;12.50;;;8.80;;
65853;SDS011;52627;48.838;2.402;2023-09-12T11:48:35;12.60;;;8.60;;
65853;SDS011;52627;48.838;2.402;2023-09-12T11:51:11;11.60;;;8.20;;
65853;SDS011;52627;48.838;2.402;2023-09-12T11:53:39;13.20;;;8.30;;
65853;SDS011;52627;48.838;2.402;2023-09-12T11:56:08;15.00;;;9.10;;
65853;SDS011;52627;48.838;2.402;2023-09-12T11:58:35;11.00;;;8.30;;
65853;SDS011;52627;48.838;2.402;2023-09-12T12:01:05;10.10;;;7.70;;
65853;SDS011;52627;48.838;2.402;2023-09-12T12:03:32;12.60;;;8.00;;
65853;SDS011;52627;48.838;2.402;2023-09-12T12:06:00;12.50;;;8.20;;
65853;SDS011;52627;48.838;2.402;2023-09-12T12:08:28;10.90;;;6.90;;
65853;SDS011;52627;48.838;2.402;2023-09-12T12:10:59;9.70;;;7.70;;
65853;SDS011;52627;48.838;2.402;2023-09-12T12:13:27;11.20;;;7.10;;
65853;SDS011;52627;48.838;2.402;2023-09-12T12:15:56;10.70;;;6.80;;
65853;SDS011;52627;48.838;2.402;2023-09-12T12:18:24;7.90;;;6.00;;
65853;SDS011;52627;48.838;2.402;2023-09-12T12:20:54;9.90;;;6.40;;
65853;SDS011;52627;48.838;2.402;2023-09-12T12:23:22;10.80;;;6.20;;
65853;SDS011;52627;48.838;2.402;2023-09-12T12:25:50;8.70;;;5.90;;
65853;SDS011;52627;48.838;2.402;2023-09-12T12:28:17;8.20;;;5.60;;
65853;SDS011;52627;48.838;2.402;2023-09-12T12:30:45;8.90;;;5.20;;
65853;SDS011;52627;48.838;2.402;2023-09-12T12:33:14;8.30;;;5.30;;
65853;SDS011;52627;48.838;2.402;2023-09-12T12:36:03;8.20;;;5.50;;
65853;SDS011;52627;48.838;2.402;2023-09-12T12:38:37;7.10;;;5.20;;
65853;SDS011;52627;48.838;2.402;2023-09-12T12:41:28;6.80;;;4.40;;
65853;SDS011;52627;48.838;2.402;2023-09-12T12:44:12;6.20;;;4.40;;
65853;SDS011;52627;48.838;2.402;2023-09-12T12:46:54;8.20;;;4.40;;
65853;SDS011;52627;48.838;2.402;2023-09-12T12:49:22;7.40;;;4.50;;
65853;SDS011;52627;48.838;2.402;2023-09-12T12:51:52;7.50;;;4.30;;
65853;SDS011;52627;48.838;2.402;2023-09-12T12:54:22;6.70;;;4.40;;
65853;SDS011;52627;48.838;2.402;2023-09-12T12:56:51;6.10;;;4.30;;
65853;SDS011;52627;48.838;2.402;2023-09-12T12:59:20;7.40;;;4.60;;
65853;SDS011;52627;48.838;2.402;2023-09-12T13:01:47;6.90;;;4.20;;
65853;SDS011;52627;48.838;2.402;2023-09-12T13:04:19;10.30;;;5.00;;
65853;SDS011;52627;48.838;2.402;2023-09-12T13:06:46;8.50;;;5.40;;
65853;SDS011;52627;48.838;2.402;2023-09-12T13:09:14;6.40;;;5.00;;
65853;SDS011;52627;48.838;2.402;2023-09-12T13:11:44;6.60;;;4.70;;
65853;SDS011;52627;48.838;2.402;2023-09-12T13:14:11;7.70;;;5.30;;
65853;SDS011;52627;48.838;2.402;2023-09-12T13:16:40;8.70;;;5.20;;
65853;SDS011;52627;48.838;2.402;2023-09-12T13:19:09;7.20;;;4.80;;
65853;SDS011;52627;48.838;2.402;2023-09-12T13:21:38;8.00;;;5.00;;
65853;SDS011;52627;48.838;2.402;2023-09-12T13:24:06;8.50;;;5.70;;
65853;SDS011;52627;48.838;2.402;2023-09-12T13:26:34;9.30;;;5.90;;
65853;SDS011;52627;48.838;2.402;2023-09-12T13:29:02;8.70;;;6.30;;
65853;SDS011;52627;48.838;2.402;2023-09-12T13:31:30;9.90;;;6.50;;
65853;SDS011;52627;48.838;2.402;2023-09-12T13:33:59;9.50;;;6.70;;
65853;SDS011;52627;48.838;2.402;2023-09-12T13:36:26;11.30;;;7.70;;
65853;SDS011;52627;48.838;2.402;2023-09-12T13:38:54;10.00;;;6.40;;
65853;SDS011;52627;48.838;2.402;2023-09-12T13:41:23;10.40;;;6.70;;
65853;SDS011;52627;48.838;2.402;2023-09-12T13:43:53;8.60;;;6.10;;
65853;SDS011;52627;48.838;2.402;2023-09-12T13:46:20;8.80;;;6.10;;
65853;SDS011;52627;48.838;2.402;2023-09-12T13:48:48;10.20;;;6.30;;
65853;SDS011;52627;48.838;2.402;2023-09-12T13:51:16;9.30;;;6.80;;
65853;SDS011;52627;48.838;2.402;2023-09-12T13:53:44;9.80;;;6.80;;
65853;SDS011;52627;48.838;2.402;2023-09-12T13:56:12;8.90;;;6.30;;
65853;SDS011;52627;48.838;2.402;2023-09-12T13:58:59;10.60;;;7.30;;
65853;SDS011;52627;48.838;2.402;2023-09-12T14:01:27;9.20;;;6.70;;
65853;SDS011;52627;48.838;2.402;2023-09-12T14:04:04;10.30;;;7.10;;
65853;SDS011;52627;48.838;2.402;2023-09-12T14:06:33;9.80;;;6.80;;
65853;SDS011;52627;48.838;2.402;2023-09-12T14:09:03;11.60;;;7.10;;
65853;SDS011;52627;48.838;2.402;2023-09-12T14:11:32;9.20;;;7.00;;
65853;SDS011;52627;48.838;2.402;2023-09-12T14:16:36;8.90;;;7.10;;
65853;SDS011;52627;48.838;2.402;2023-09-12T14:19:04;12.20;;;7.20;;
65853;SDS011;52627;48.838;2.402;2023-09-12T14:21:33;10.40;;;7.00;;
65853;SDS011;52627;48.838;2.402;2023-09-12T14:24:03;10.70;;;7.20;;
65853;SDS011;52627;48.838;2.402;2023-09-12T14:26:32;9.40;;;6.30;;
65853;SDS011;52627;48.838;2.402;2023-09-12T14:29:00;9.60;;;6.20;;
65853;SDS011;52627;48.838;2.402;2023-09-12T14:31:29;6.90;;;5.20;;
65853;SDS011;52627;48.838;2.402;2023-09-12T14:33:57;9.50;;;5.90;;
65853;SDS011;52627;48.838;2.402;2023-09-12T14:36:25;10.10;;;6.70;;
65853;SDS011;52627;48.838;2.402;2023-09-12T14:38:52;8.50;;;6.00;;
65853;SDS011;52627;48.838;2.402;2023-09-12T14:41:20;10.00;;;5.80;;
65853;SDS011;52627;48.838;2.402;2023-09-12T14:43:47;8.30;;;5.70;;
65853;SDS011;52627;48.838;2.402;2023-09-12T14:46:15;9.30;;;5.50;;
65853;SDS011;52627;48.838;2.402;2023-09-12T14:48:43;8.40;;;5.00;;
65853;SDS011;52627;48.838;2.402;2023-09-12T14:51:26;9.70;;;5.70;;
65853;SDS011;52627;48.838;2.402;2023-09-12T14:54:00;7.60;;;6.00;;
65853;SDS011;52627;48.838;2.402;2023-09-12T14:56:29;8.10;;;6.00;;
65853;SDS011;52627;48.838;2.402;2023-09-12T14:58:58;9.50;;;6.50;;
65853;SDS011;52627;48.838;2.402;2023-09-12T15:01:25;10.00;;;7.00;;
65853;SDS011;52627;48.838;2.402;2023-09-12T15:03:54;12.00;;;8.20;;
65853;SDS011;52627;48.838;2.402;2023-09-12T15:06:22;10.80;;;6.60;;
65853;SDS011;52627;48.838;2.402;2023-09-12T15:08:50;9.30;;;6.90;;
65853;SDS011;52627;48.838;2.402;2023-09-12T15:11:18;8.40;;;7.10;;